Time;durP1;ratioP1;P1;durP2;ratioP2;P2;SDS_P1;SDS_P2;PMS_P1;PMS_P2;Temp;Humidity;BMP_temperature;BMP_pressure;BME280_temperature;BME280_humidity;BME280_pressure;Samples;Min_cycle;Max_cycle;Signal;HPM_P1;HPM_P2
2022/05/30 00:02:16;;;;;;;0.30;0.30;;;8.20;99.90;;;;;;5097151;28;20571;-88
2022/05/30 00:04:42;;;;;;;0.30;0.30;;;8.10;99.90;;;;;;5097036;28;20448;-88
2022/05/30 00:07:09;;;;;;;0.30;0.30;;;8.10;99.90;;;;;;5097362;28;20448;-87
2022/05/30 00:09:36;;;;;;;0.60;0.33;;;8.10;99.90;;;;;;5097298;28;20455;-88
2022/05/30 00:12:04;;;;;;;0.30;0.30;;;8.10;99.90;;;;;;5097160;28;20475;-88
2022/05/30 00:14:31;;;;;;;0.30;0.30;;;8.00;99.90;;;;;;5097079;28;20957;-88
2022/05/30 00:16:58;;;;;;;0.30;0.30;;;8.00;99.90;;;;;;5097162;28;20943;-88
2022/05/30 00:19:26;;;;;;;0.30;0.30;;;8.00;99.90;;;;;;5097141;28;20447;-88
2022/05/30 00:21:56;;;;;;;0.30;0.30;;;8.10;99.90;;;;;;5097385;28;20854;-88
2022/05/30 00:24:23;;;;;;;0.30;0.30;;;7.90;99.90;;;;;;5097159;28;20476;-88
2022/05/30 00:26:49;;;;;;;0.40;0.30;;;7.90;99.90;;;;;;5096902;28;20447;-88
2022/05/30 00:29:16;;;;;;;0.40;0.40;;;7.90;99.90;;;;;;5096756;28;20444;-88
2022/05/30 00:31:43;;;;;;;0.40;0.40;;;7.80;99.90;;;;;;5097252;28;20448;-88
2022/05/30 00:34:10;;;;;;;0.40;0.40;;;7.80;99.90;;;;;;5096690;28;20432;-88
2022/05/30 00:36:38;;;;;;;0.30;0.30;;;7.80;99.90;;;;;;5096812;28;20452;-88
2022/05/30 00:39:05;;;;;;;0.50;0.40;;;7.70;99.90;;;;;;5096671;28;20452;-88
2022/05/30 00:41:31;;;;;;;0.30;0.30;;;7.70;99.90;;;;;;5096214;28;20475;-88
2022/05/30 00:43:58;;;;;;;0.40;0.40;;;7.70;99.90;;;;;;5096442;28;20478;-88
2022/05/30 00:46:25;;;;;;;0.30;0.30;;;7.70;99.90;;;;;;5096307;28;20447;-88
2022/05/30 00:48:55;;;;;;;0.40;0.40;;;7.70;99.90;;;;;;5096580;28;20792;-89
2022/05/30 00:51:24;;;;;;;0.30;0.30;;;7.70;99.90;;;;;;5096714;28;20444;-88
2022/05/30 00:53:56;;;;;;;0.60;0.30;;;7.70;99.90;;;;;;5096419;28;20460;-88
2022/05/30 00:56:25;;;;;;;0.40;0.33;;;7.70;99.90;;;;;;5096582;28;20919;-88
2022/05/30 00:58:52;;;;;;;0.50;0.40;;;7.70;99.90;;;;;;5096401;28;20459;-88
2022/05/30 01:01:20;;;;;;;0.50;0.30;;;7.70;99.90;;;;;;5096375;28;20976;-87
2022/05/30 01:06:36;;;;;;;0.30;0.30;;;7.70;99.90;;;;;;5095541;28;20411;-88
2022/05/30 01:09:08;;;;;;;0.40;0.40;;;7.60;99.90;;;;;;5096044;28;20939;-88
2022/05/30 01:11:55;;;;;;;0.30;0.30;;;7.70;99.90;;;;;;5096188;28;20436;-88
2022/05/30 01:14:24;;;;;;;0.30;0.30;;;7.70;99.90;;;;;;5096255;28;20936;-88
2022/05/30 01:16:50;;;;;;;0.60;0.30;;;7.70;99.90;;;;;;5095966;28;20451;-88
2022/05/30 01:19:51;;;;;;;0.30;0.30;;;7.70;99.90;;;;;;5095874;28;20455;-88
2022/05/30 01:22:49;;;;;;;0.30;0.30;;;7.70;99.90;;;;;;5048109;28;20502;-88
2022/05/30 01:25:28;;;;;;;0.30;0.30;;;7.70;99.90;;;;;;5082418;28;20452;-88
2022/05/30 01:28:04;;;;;;;0.30;0.30;;;7.60;99.90;;;;;;5095769;28;20527;-88
2022/05/30 01:30:35;;;;;;;0.30;0.30;;;7.60;99.90;;;;;;5095934;28;20466;-88
2022/05/30 01:33:01;;;;;;;0.30;0.30;;;7.60;99.90;;;;;;5095921;28;20459;-88
2022/05/30 01:35:30;;;;;;;0.30;0.30;;;7.50;99.90;;;;;;5096310;28;20444;-88
2022/05/30 01:37:59;;;;;;;0.90;0.33;;;7.50;99.90;;;;;;5098209;28;20455;-88
2022/05/30 01:40:27;;;;;;;0.37;0.30;;;7.50;99.90;;;;;;5118560;28;20472;-86
2022/05/30 01:42:54;;;;;;;0.30;0.30;;;7.50;99.90;;;;;;5118428;28;20483;-88
2022/05/30 01:45:21;;;;;;;0.63;0.60;;;7.50;99.90;;;;;;5102144;28;20432;-88
2022/05/30 01:47:49;;;;;;;0.40;0.33;;;7.50;99.90;;;;;;5095526;28;20447;-88
2022/05/30 01:50:18;;;;;;;0.40;0.30;;;7.50;99.90;;;;;;5095098;28;20444;-88
2022/05/30 01:52:45;;;;;;;0.30;0.30;;;7.50;99.90;;;;;;5095201;28;20460;-88
2022/05/30 01:55:12;;;;;;;0.60;0.30;;;7.50;99.90;;;;;;5095128;28;20494;-88
2022/05/30 01:57:39;;;;;;;1.40;1.30;;;7.50;99.90;;;;;;5095129;28;20452;-88
2022/05/30 02:00:07;;;;;;;0.40;0.37;;;7.40;99.90;;;;;;5095083;28;20539;-87
2022/05/30 02:02:43;;;;;;;0.30;0.20;;;7.40;99.90;;;;;;5094810;28;20488;-88
2022/05/30 02:05:15;;;;;;;0.50;0.50;;;7.40;99.90;;;;;;5094897;28;20814;-87
2022/05/30 02:07:44;;;;;;;0.63;0.60;;;7.40;99.90;;;;;;5094322;28;20452;-88
2022/05/30 02:10:11;;;;;;;0.30;0.30;;;7.50;99.90;;;;;;5094673;28;20939;-88
2022/05/30 02:12:37;;;;;;;0.30;0.27;;;7.50;99.90;;;;;;5094504;28;21017;-88
2022/05/30 02:15:05;;;;;;;0.40;0.30;;;7.50;99.90;;;;;;5094748;28;20935;-88
2022/05/30 02:17:32;;;;;;;0.30;0.27;;;7.40;99.90;;;;;;5093964;28;20443;-88
2022/05/30 02:19:59;;;;;;;0.70;0.40;;;7.30;99.90;;;;;;5094603;28;20542;-88
2022/05/30 02:22:29;;;;;;;0.60;0.60;;;7.30;99.90;;;;;;5094394;28;20452;-88
2022/05/30 02:24:56;;;;;;;0.40;0.30;;;7.30;99.90;;;;;;5094679;28;20428;-87
2022/05/30 02:27:23;;;;;;;0.40;0.30;;;7.20;99.90;;;;;;5094701;28;20534;-88
2022/05/30 02:29:52;;;;;;;0.33;0.30;;;7.20;99.90;;;;;;5094396;28;20453;-88
2022/05/30 02:32:19;;;;;;;0.40;0.40;;;7.20;99.90;;;;;;5094516;28;20497;-88
2022/05/30 02:37:32;;;;;;;0.67;0.40;;;7.30;99.90;;;;;;5094588;28;20890;-88
2022/05/30 02:39:59;;;;;;;0.90;0.30;;;7.20;99.90;;;;;;5094370;28;20440;-88
2022/05/30 02:42:26;;;;;;;0.30;0.30;;;7.20;99.90;;;;;;5093752;28;20480;-88
2022/05/30 02:44:53;;;;;;;0.40;0.37;;;7.20;99.90;;;;;;5093943;28;20935;-87
2022/05/30 02:47:21;;;;;;;0.40;0.30;;;7.20;99.90;;;;;;5094238;28;20801;-88
2022/05/30 02:49:47;;;;;;;0.40;0.30;;;7.10;99.90;;;;;;5094353;28;20444;-88
2022/05/30 02:52:14;;;;;;;0.90;0.40;;;7.00;99.90;;;;;;5093757;28;20456;-88
2022/05/30 02:54:42;;;;;;;0.40;0.30;;;7.00;99.90;;;;;;5093903;28;20432;-88
2022/05/30 02:57:09;;;;;;;0.30;0.30;;;7.00;99.90;;;;;;5093647;28;20451;-88
2022/05/30 02:59:36;;;;;;;0.30;0.30;;;7.00;99.90;;;;;;5094295;28;20499;-88
2022/05/30 03:02:04;;;;;;;0.30;0.30;;;6.90;99.90;;;;;;5094122;28;20464;-88
2022/05/30 03:04:30;;;;;;;0.50;0.47;;;6.90;99.90;;;;;;5093938;28;20854;-88
2022/05/30 03:06:57;;;;;;;0.50;0.30;;;6.90;99.90;;;;;;5094078;28;20454;-88
2022/05/30 03:09:24;;;;;;;0.40;0.30;;;6.90;99.90;;;;;;5094013;28;20451;-87
2022/05/30 03:11:52;;;;;;;0.30;0.30;;;6.90;99.90;;;;;;5094105;28;20959;-88
2022/05/30 03:14:19;;;;;;;0.30;0.30;;;6.90;99.90;;;;;;5093848;28;20443;-87
2022/05/30 03:16:45;;;;;;;0.30;0.30;;;6.90;99.90;;;;;;5093910;28;20946;-87
2022/05/30 03:19:15;;;;;;;0.40;0.30;;;6.80;99.90;;;;;;5093996;28;20444;-87
2022/05/30 03:21:45;;;;;;;0.40;0.33;;;6.70;99.90;;;;;;5094184;28;20444;-87
2022/05/30 03:24:19;;;;;;;0.40;0.33;;;6.70;99.90;;;;;;5093637;28;21025;-88
2022/05/30 03:26:46;;;;;;;4.13;0.60;;;6.70;99.90;;;;;;5093513;28;20416;-88
2022/05/30 03:29:14;;;;;;;0.57;0.40;;;6.60;99.90;;;;;;5094880;28;20440;-88
2022/05/30 03:31:40;;;;;;;0.30;0.30;;;6.60;99.90;;;;;;5097913;28;20447;-88
2022/05/30 03:34:07;;;;;;;0.30;0.30;;;6.60;99.90;;;;;;5097666;28;20440;-88
2022/05/30 03:36:34;;;;;;;0.93;0.40;;;6.60;99.90;;;;;;5097329;28;20448;-88
2022/05/30 03:39:01;;;;;;;0.30;0.30;;;6.60;99.90;;;;;;5097803;28;20463;-87
2022/05/30 03:41:28;;;;;;;0.40;0.40;;;6.50;99.90;;;;;;5097688;28;21001;-88
2022/05/30 03:43:59;;;;;;;0.30;0.30;;;6.50;99.90;;;;;;5097473;28;20488;-88
2022/05/30 03:46:28;;;;;;;0.40;0.37;;;6.60;99.90;;;;;;5097624;28;20519;-88
2022/05/30 03:48:55;;;;;;;0.77;0.50;;;6.60;99.90;;;;;;5097132;28;20439;-88
2022/05/30 03:51:22;;;;;;;0.40;0.30;;;6.60;99.90;;;;;;5097230;28;20448;-88
2022/05/30 03:53:48;;;;;;;0.50;0.40;;;6.70;99.90;;;;;;5097088;28;20459;-88
2022/05/30 03:56:15;;;;;;;0.43;0.43;;;6.70;99.90;;;;;;5097359;28;20475;-88
2022/05/30 03:58:42;;;;;;;0.50;0.30;;;6.80;99.90;;;;;;5097367;28;20451;-88
2022/05/30 04:01:09;;;;;;;1.17;0.77;;;6.70;99.90;;;;;;5097175;28;20459;-88
2022/05/30 04:03:39;;;;;;;0.37;0.37;;;6.70;99.90;;;;;;5096866;28;20537;-88
2022/05/30 04:06:09;;;;;;;0.50;0.50;;;6.70;99.90;;;;;;5097535;28;20447;-87
2022/05/30 04:08:36;;;;;;;0.30;0.30;;;6.70;99.90;;;;;;5097197;28;20428;-88
2022/05/30 04:11:03;;;;;;;0.37;0.37;;;6.80;99.90;;;;;;5096839;28;20440;-87
2022/05/30 04:13:30;;;;;;;0.30;0.30;;;6.80;99.90;;;;;;5096885;28;20466;-88
2022/05/30 04:15:57;;;;;;;0.30;0.30;;;6.80;99.90;;;;;;5097237;28;20459;-88
2022/05/30 04:18:24;;;;;;;0.40;0.40;;;6.90;99.90;;;;;;5097122;28;20432;-87
2022/05/30 04:20:52;;;;;;;0.30;0.30;;;7.00;99.90;;;;;;5097084;28;20481;-88
2022/05/30 04:23:18;;;;;;;0.83;0.33;;;7.00;99.90;;;;;;5096672;28;20476;-88
2022/05/30 04:25:45;;;;;;;0.30;0.30;;;7.10;99.90;;;;;;5096832;28;20455;-88
2022/05/30 04:28:19;;;;;;;0.83;0.30;;;7.20;99.90;;;;;;5096827;28;20488;-88
2022/05/30 04:30:46;;;;;;;0.30;0.20;;;7.20;99.90;;;;;;5096444;28;21010;-88
2022/05/30 04:33:12;;;;;;;0.60;0.50;;;7.20;99.90;;;;;;5096569;28;20554;-88
2022/05/30 04:35:40;;;;;;;0.30;0.30;;;7.30;99.90;;;;;;5096779;28;20440;-88
2022/05/30 04:38:08;;;;;;;0.30;0.30;;;7.30;99.90;;;;;;5096678;28;20452;-88
2022/05/30 04:40:34;;;;;;;0.93;0.40;;;7.30;99.90;;;;;;5095128;28;20499;-88
2022/05/30 04:43:01;;;;;;;0.40;0.40;;;7.40;99.90;;;;;;5096456;28;20479;-88
2022/05/30 04:45:28;;;;;;;0.30;0.30;;;7.40;99.90;;;;;;5096423;28;20450;-88
2022/05/30 04:47:55;;;;;;;0.40;0.30;;;7.50;99.90;;;;;;5096434;28;20455;-88
2022/05/30 04:50:22;;;;;;;0.40;0.30;;;7.50;99.90;;;;;;5096184;28;20447;-88
2022/05/30 04:52:48;;;;;;;0.30;0.30;;;7.50;99.90;;;;;;5096458;28;20475;-88
2022/05/30 04:55:18;;;;;;;8.03;0.50;;;7.50;99.90;;;;;;5096452;28;20451;-88
2022/05/30 04:57:47;;;;;;;0.60;0.40;;;7.50;99.90;;;;;;5095997;28;20923;-88
2022/05/30 05:00:16;;;;;;;0.40;0.40;;;7.50;99.90;;;;;;5096767;28;20470;-88
2022/05/30 05:02:46;;;;;;;0.50;0.50;;;7.60;99.90;;;;;;5095805;28;20974;-88
2022/05/30 05:05:13;;;;;;;0.30;0.30;;;7.70;99.90;;;;;;5095835;28;20995;-88
2022/05/30 05:07:44;;;;;;;0.40;0.30;;;7.80;99.90;;;;;;5095997;28;20440;-88
2022/05/30 05:10:28;;;;;;;0.40;0.40;;;7.80;99.90;;;;;;5096113;28;20409;-88
2022/05/30 05:12:55;;;;;;;0.40;0.33;;;7.90;99.90;;;;;;5096059;28;20555;-88
2022/05/30 05:15:22;;;;;;;0.67;0.47;;;8.10;99.90;;;;;;5095736;28;20470;-88
2022/05/30 05:17:49;;;;;;;0.87;0.50;;;8.20;99.90;;;;;;5096472;28;20444;-88
2022/05/30 05:20:16;;;;;;;0.50;0.50;;;8.30;99.90;;;;;;5095967;28;20452;-88
2022/05/30 05:22:43;;;;;;;0.60;0.40;;;8.40;99.90;;;;;;5095742;28;20939;-88
2022/05/30 05:25:10;;;;;;;0.80;0.80;;;8.50;99.90;;;;;;5095686;28;20472;-88
2022/05/30 05:27:38;;;;;;;0.40;0.30;;;8.60;99.90;;;;;;5095698;28;20443;-88
2022/05/30 05:30:07;;;;;;;0.40;0.40;;;8.70;99.90;;;;;;5095642;28;20463;-88
2022/05/30 05:32:34;;;;;;;0.40;0.30;;;8.80;99.90;;;;;;5095521;28;20460;-88
2022/05/30 05:35:00;;;;;;;0.40;0.30;;;9.00;99.90;;;;;;5095456;28;20444;-88
2022/05/30 05:37:27;;;;;;;0.67;0.37;;;9.10;99.90;;;;;;5095567;28;20452;-88
2022/05/30 05:39:54;;;;;;;0.30;0.30;;;9.20;99.90;;;;;;5095539;28;20447;-88
2022/05/30 05:42:20;;;;;;;0.30;0.30;;;9.30;99.90;;;;;;5095032;28;20467;-88
2022/05/30 05:44:49;;;;;;;0.50;0.40;;;9.50;99.90;;;;;;5095342;28;20476;-88
2022/05/30 05:47:15;;;;;;;0.40;0.30;;;9.60;99.90;;;;;;5095625;28;20965;-89
2022/05/30 05:49:42;;;;;;;0.40;0.30;;;9.70;99.90;;;;;;5095261;28;20456;-88
2022/05/30 05:52:09;;;;;;;0.37;0.33;;;9.90;99.90;;;;;;5094588;28;20479;-88
2022/05/30 05:54:36;;;;;;;0.83;0.40;;;10.00;99.90;;;;;;5094803;28;20536;-88
2022/05/30 05:57:16;;;;;;;0.43;0.43;;;10.20;99.90;;;;;;5095218;28;20436;-88
2022/05/30 05:59:42;;;;;;;0.60;0.50;;;10.30;99.90;;;;;;5095038;28;20443;-88
2022/05/30 06:02:11;;;;;;;0.30;0.30;;;10.50;99.90;;;;;;5094857;28;20459;-88
2022/05/30 06:04:38;;;;;;;0.60;0.50;;;10.70;99.90;;;;;;5094960;28;20502;-88
2022/05/30 06:07:05;;;;;;;0.50;0.50;;;10.80;99.90;;;;;;5095296;28;20440;-89
2022/05/30 06:09:32;;;;;;;0.60;0.40;;;11.00;99.90;;;;;;5095094;28;20450;-89
2022/05/30 06:11:59;;;;;;;0.50;0.50;;;11.30;99.90;;;;;;5094790;28;20480;-88
2022/05/30 06:14:26;;;;;;;1.47;0.47;;;11.60;99.90;;;;;;5094782;28;20454;-88
2022/05/30 06:16:53;;;;;;;0.50;0.50;;;11.80;99.90;;;;;;5094531;28;20439;-89
2022/05/30 06:19:22;;;;;;;1.20;0.43;;;12.20;99.90;;;;;;5094542;28;20432;-88
2022/05/30 06:21:48;;;;;;;0.70;0.50;;;12.50;99.90;;;;;;5094775;28;20451;-88
2022/05/30 06:24:15;;;;;;;0.50;0.40;;;12.90;99.90;;;;;;5094686;28;20994;-87
2022/05/30 06:26:44;;;;;;;1.33;0.50;;;13.20;99.90;;;;;;5094599;28;20939;-88
2022/05/30 06:29:11;;;;;;;0.50;0.50;;;13.70;99.90;;;;;;5094466;28;20993;-89
2022/05/30 06:31:53;;;;;;;0.70;0.50;;;13.80;99.90;;;;;;5094444;28;20501;-89
2022/05/30 06:34:21;;;;;;;0.80;0.70;;;14.10;99.90;;;;;;5095067;28;20799;-89
2022/05/30 06:36:47;;;;;;;0.50;0.40;;;14.50;99.90;;;;;;5094585;28;20440;-89
2022/05/30 06:39:17;;;;;;;1.00;0.50;;;14.80;99.90;;;;;;5094197;28;20440;-89
2022/05/30 06:41:44;;;;;;;0.70;0.50;;;15.00;99.90;;;;;;5094168;28;20574;-90
2022/05/30 06:44:11;;;;;;;0.50;0.50;;;15.00;99.90;;;;;;5094473;28;20488;-89
2022/05/30 06:46:39;;;;;;;0.40;0.40;;;15.10;99.90;;;;;;5094399;28;20451;-90
2022/05/30 06:49:07;;;;;;;0.53;0.53;;;15.30;99.90;;;;;;5094896;28;20935;-90
2022/05/30 06:51:36;;;;;;;0.50;0.50;;;15.60;99.90;;;;;;5094465;28;20431;-90
2022/05/30 06:54:04;;;;;;;2.10;0.70;;;15.90;99.90;;;;;;5094730;28;20443;-90
2022/05/30 06:56:34;;;;;;;0.43;0.40;;;15.90;99.90;;;;;;5094715;28;20450;-90
2022/05/30 06:59:01;;;;;;;2.97;0.93;;;16.30;99.90;;;;;;5094394;28;20931;-90
2022/05/30 07:01:30;;;;;;;0.70;0.70;;;16.40;99.90;;;;;;5094544;28;20547;-90
2022/05/30 07:03:57;;;;;;;0.60;0.60;;;16.50;99.90;;;;;;5096422;28;20463;-90
2022/05/30 07:06:27;;;;;;;0.70;0.70;;;16.60;99.90;;;;;;5101379;28;20474;-91
2022/05/30 07:08:56;;;;;;;0.47;0.47;;;16.70;99.90;;;;;;5101176;28;20439;-90
2022/05/30 07:11:24;;;;;;;2.30;0.87;;;16.80;99.90;;;;;;5101396;28;20448;-91
2022/05/30 07:13:51;;;;;;;0.73;0.60;;;16.70;99.90;;;;;;5101000;28;20455;-91
2022/05/30 07:16:19;;;;;;;0.73;0.50;;;16.80;99.90;;;;;;5101273;28;20447;-91
2022/05/30 07:18:46;;;;;;;0.60;0.60;;;16.80;99.90;;;;;;5102202;28;20431;-91
2022/05/30 07:21:19;;;;;;;0.50;0.47;;;16.90;99.90;;;;;;5101401;28;20447;-91
2022/05/30 07:23:52;;;;;;;0.50;0.50;;;17.20;99.90;;;;;;5099554;28;20463;-92
2022/05/30 07:26:22;;;;;;;1.70;0.70;;;17.10;99.90;;;;;;5101525;28;20415;-92
2022/05/30 07:28:51;;;;;;;1.70;0.50;;;17.00;99.90;;;;;;5101802;28;20478;-93
2022/05/30 07:31:21;;;;;;;0.50;0.50;;;17.30;99.20;;;;;;5101463;28;20493;-92
2022/05/30 07:33:49;;;;;;;0.47;0.47;;;17.70;99.00;;;;;;5101026;28;20459;-92
2022/05/30 07:36:21;;;;;;;0.63;0.60;;;18.20;98.30;;;;;;5101271;28;20450;-93
2022/05/30 07:38:48;;;;;;;1.13;0.70;;;18.50;96.10;;;;;;5101229;28;20455;-93
2022/05/30 07:41:15;;;;;;;0.57;0.57;;;18.90;96.00;;;;;;5101049;28;20831;-93
2022/05/30 07:43:44;;;;;;;2.60;1.33;;;19.90;94.80;;;;;;5101276;28;20221;-93
2022/05/30 07:46:12;;;;;;;0.50;0.50;;;20.60;91.30;;;;;;5100938;28;20221;-93
2022/05/30 07:48:40;;;;;;;0.80;0.80;;;20.90;90.40;;;;;;5100895;28;20193;-92
2022/05/30 07:51:08;;;;;;;0.60;0.60;;;20.40;89.70;;;;;;5101516;28;20201;-93
2022/05/30 07:53:36;;;;;;;0.50;0.50;;;19.50;90.40;;;;;;5100899;28;20589;-93
2022/05/30 07:56:05;;;;;;;1.90;0.63;;;18.70;91.20;;;;;;5101008;28;20446;-93
2022/05/30 07:58:32;;;;;;;0.80;0.50;;;17.90;91.90;;;;;;5101075;28;20439;-92
2022/05/30 08:01:01;;;;;;;0.60;0.60;;;17.30;92.80;;;;;;5101035;28;20450;-92
2022/05/30 08:03:28;;;;;;;0.60;0.50;;;16.90;92.70;;;;;;5101374;28;20459;-92
2022/05/30 08:06:03;;;;;;;1.60;0.70;;;16.70;93.80;;;;;;5102232;28;20848;-92
2022/05/30 08:08:30;;;;;;;0.63;0.60;;;17.30;94.60;;;;;;5102309;28;20431;-92
2022/05/30 08:10:56;;;;;;;0.50;0.50;;;18.10;93.40;;;;;;5102770;28;20453;-93
2022/05/30 08:13:23;;;;;;;0.60;0.60;;;19.00;93.00;;;;;;5102919;28;20477;-93
2022/05/30 08:15:50;;;;;;;0.40;0.40;;;19.60;91.30;;;;;;5101003;28;20447;-93
2022/05/30 08:18:19;;;;;;;0.50;0.50;;;20.20;91.20;;;;;;5098611;28;20657;-93
2022/05/30 08:20:46;;;;;;;0.50;0.50;;;20.80;85.60;;;;;;5097685;28;20198;-93
2022/05/30 08:23:13;;;;;;;0.80;0.55;;;20.90;82.80;;;;;;5097742;28;20217;-92
2022/05/30 08:25:42;;;;;;;0.70;0.50;;;21.00;79.20;;;;;;5097429;28;20700;-93
2022/05/30 08:28:09;;;;;;;0.70;0.60;;;21.30;79.70;;;;;;5097719;28;20201;-92
2022/05/30 08:30:36;;;;;;;0.43;0.43;;;21.60;71.30;;;;;;5097792;28;20206;-93
2022/05/30 08:33:03;;;;;;;0.60;0.50;;;21.70;67.10;;;;;;5098308;28;20585;-93
2022/05/30 08:35:31;;;;;;;0.50;0.50;;;21.30;67.60;;;;;;5097860;28;20239;-93
2022/05/30 08:37:58;;;;;;;0.65;0.65;;;20.70;65.90;;;;;;5098032;28;20193;-93
2022/05/30 08:43:16;;;;;;;0.77;0.57;;;19.00;69.60;;;;;;5097567;28;20216;-92
2022/05/30 08:45:44;;;;;;;0.60;0.50;;;18.20;72.60;;;;;;5097203;28;20475;-92
2022/05/30 08:48:12;;;;;;;1.00;0.43;;;17.60;73.90;;;;;;5098029;28;20529;-92
2022/05/30 08:50:47;;;;;;;0.50;0.40;;;17.20;72.10;;;;;;5102610;28;20450;-92
2022/05/30 08:53:43;;;;;;;0.43;0.40;;;17.20;71.70;;;;;;5104661;28;20467;-92
2022/05/30 08:56:20;;;;;;;0.40;0.40;;;17.80;70.10;;;;;;5108160;28;20428;-91
2022/05/30 08:59:00;;;;;;;0.40;0.30;;;18.80;67.10;;;;;;5112939;28;20434;-92
2022/05/30 09:01:33;;;;;;;0.63;0.50;;;19.70;64.20;;;;;;5112469;28;20432;-93
2022/05/30 09:04:10;;;;;;;0.70;0.70;;;20.70;62.70;;;;;;5106336;28;20435;-94
2022/05/30 09:06:44;;;;;;;0.40;0.40;;;21.30;62.80;;;;;;5104649;28;20477;-90
2022/05/30 09:09:22;;;;;;;0.60;0.53;;;21.40;61.60;;;;;;5098501;28;20445;-94
2022/05/30 09:11:54;;;;;;;0.40;0.40;;;20.90;60.70;;;;;;5097602;28;20436;-93
2022/05/30 09:14:32;;;;;;;0.50;0.50;;;20.70;56.00;;;;;;5098774;28;20432;-93
2022/05/30 09:17:02;;;;;;;0.50;0.40;;;20.20;56.00;;;;;;5098877;28;20404;-93
2022/05/30 09:19:29;;;;;;;0.40;0.40;;;19.90;57.30;;;;;;5098510;28;20510;-93
2022/05/30 09:22:01;;;;;;;0.60;0.60;;;20.00;58.80;;;;;;5097635;28;20475;-93
2022/05/30 09:24:29;;;;;;;0.70;0.40;;;20.00;59.90;;;;;;5098084;28;20431;-93
2022/05/30 09:26:57;;;;;;;2.17;0.50;;;20.00;59.30;;;;;;5098078;28;20448;-93
2022/05/30 09:29:29;;;;;;;0.83;0.60;;;20.00;59.70;;;;;;5101771;28;20451;-94
2022/05/30 09:32:05;;;;;;;0.53;0.30;;;19.80;60.30;;;;;;5102348;28;20451;-93
2022/05/30 09:34:37;;;;;;;0.40;0.40;;;20.00;57.60;;;;;;5112417;28;20883;-93
2022/05/30 09:37:06;;;;;;;0.67;0.50;;;20.30;57.90;;;;;;5104413;28;20458;-94
2022/05/30 09:39:44;;;;;;;0.50;0.50;;;20.20;57.20;;;;;;5098152;28;20937;-93
2022/05/30 09:42:28;;;;;;;0.50;0.50;;;20.40;59.00;;;;;;5102319;28;20487;-93
2022/05/30 09:44:59;;;;;;;0.40;0.40;;;20.60;58.40;;;;;;5102502;28;20460;-93
2022/05/30 09:47:25;;;;;;;1.43;0.60;;;20.80;62.40;;;;;;5100122;28;20419;-92
2022/05/30 09:49:54;;;;;;;0.60;0.50;;;21.00;62.60;;;;;;5101513;28;20455;-92
2022/05/30 09:52:30;;;;;;;0.50;0.40;;;20.70;60.40;;;;;;5101508;28;20467;-93
2022/05/30 09:54:57;;;;;;;0.40;0.40;;;20.80;60.20;;;;;;5101481;28;20431;-92
2022/05/30 09:57:28;;;;;;;0.40;0.40;;;20.90;60.80;;;;;;5099567;28;20447;-92
2022/05/30 09:59:58;;;;;;;0.40;0.40;;;20.60;60.20;;;;;;5097351;28;20435;-92
2022/05/30 10:02:28;;;;;;;0.50;0.50;;;20.10;60.20;;;;;;5096181;28;20463;-91
2022/05/30 10:04:57;;;;;;;0.50;0.50;;;19.60;61.70;;;;;;5096153;28;20526;-92
2022/05/30 10:07:26;;;;;;;0.43;0.43;;;19.20;62.60;;;;;;5095880;28;20473;-91
2022/05/30 10:09:57;;;;;;;0.40;0.30;;;18.80;64.50;;;;;;5095597;28;20537;-91
2022/05/30 10:12:37;;;;;;;0.87;0.47;;;18.60;61.00;;;;;;5095629;28;20498;-91
2022/05/30 10:15:27;;;;;;;0.80;0.80;;;18.20;61.80;;;;;;5095118;28;20423;-91
2022/05/30 10:17:56;;;;;;;0.40;0.33;;;17.90;62.90;;;;;;5095340;28;20425;-91
2022/05/30 10:20:26;;;;;;;0.70;0.70;;;17.60;64.80;;;;;;5094966;28;20538;-91
2022/05/30 10:28:52;;;;;;;0.80;0.40;;;17.30;62.50;;;;;;5095696;28;20887;-91
2022/05/30 10:31:42;;;;;;;0.50;0.50;;;17.20;63.00;;;;;;5095225;28;20451;-91
2022/05/30 10:34:30;;;;;;;0.40;0.40;;;17.20;64.20;;;;;;5095004;28;20431;-91
2022/05/30 10:37:04;;;;;;;0.50;0.40;;;17.20;65.10;;;;;;5094945;28;20428;-91
2022/05/30 10:39:53;;;;;;;0.50;0.50;;;17.60;64.80;;;;;;5093843;28;20416;-92
2022/05/30 10:42:25;;;;;;;1.70;0.50;;;18.00;62.20;;;;;;5094359;28;20846;-89
2022/05/30 10:45:03;;;;;;;0.50;0.50;;;18.40;60.00;;;;;;5094398;28;20435;-91
2022/05/30 10:47:39;;;;;;;0.90;0.70;;;18.50;59.20;;;;;;5095128;28;20438;-92
2022/05/30 10:50:13;;;;;;;0.70;0.50;;;18.60;59.10;;;;;;5094866;28;20416;-91
2022/05/30 10:53:00;;;;;;;0.40;0.40;;;18.70;57.90;;;;;;5094561;28;20507;-91
2022/05/30 10:55:33;;;;;;;0.40;0.40;;;18.90;59.30;;;;;;5094673;28;20424;-92
2022/05/30 10:58:02;;;;;;;0.40;0.40;;;19.30;60.50;;;;;;5094382;28;20443;-91
2022/05/30 11:00:34;;;;;;;0.40;0.33;;;19.70;58.00;;;;;;5094231;28;20434;-92
2022/05/30 11:03:07;;;;;;;0.60;0.47;;;20.30;58.20;;;;;;5095396;28;20476;-92
2022/05/30 11:05:40;;;;;;;0.50;0.50;;;20.90;55.00;;;;;;5095586;28;20470;-92
2022/05/30 11:08:14;;;;;;;0.50;0.50;;;21.20;54.00;;;;;;5095461;28;20787;-92
2022/05/30 11:10:48;;;;;;;0.40;0.40;;;21.00;53.90;;;;;;5095752;28;20462;-92
2022/05/30 11:13:31;;;;;;;0.60;0.60;;;20.80;54.70;;;;;;5095790;28;20452;-92
2022/05/30 11:16:02;;;;;;;1.10;0.50;;;20.50;54.20;;;;;;5095570;28;20423;-91
2022/05/30 11:18:34;;;;;;;0.50;0.50;;;20.30;54.40;;;;;;5094722;28;20412;-91
2022/05/30 11:21:08;;;;;;;0.60;0.37;;;19.70;55.10;;;;;;5094772;28;20464;-93
2022/05/30 11:23:35;;;;;;;0.77;0.50;;;19.40;56.00;;;;;;5094718;28;20448;-91
2022/05/30 11:26:25;;;;;;;1.17;0.70;;;19.10;56.70;;;;;;5094859;28;20551;-91
2022/05/30 11:29:09;;;;;;;3.03;0.60;;;19.00;55.80;;;;;;5094637;28;20503;-90
2022/05/30 11:31:42;;;;;;;0.93;0.60;;;18.70;59.10;;;;;;5095308;28;20428;-93
2022/05/30 11:34:20;;;;;;;0.40;0.33;;;18.50;55.10;;;;;;5095019;28;20903;-92
2022/05/30 11:37:11;;;;;;;1.23;0.80;;;18.20;54.60;;;;;;5096501;28;20432;-82
2022/05/30 11:39:56;;;;;;;0.77;0.70;;;17.90;55.50;;;;;;5096994;28;20519;-92
2022/05/30 11:42:36;;;;;;;0.60;0.50;;;17.60;56.70;;;;;;5095227;28;20483;-92
2022/05/30 11:45:13;;;;;;;0.50;0.50;;;17.40;57.50;;;;;;5095348;28;20432;-91
2022/05/30 11:47:52;;;;;;;1.10;0.50;;;17.20;58.70;;;;;;5096175;28;20440;-91
2022/05/30 11:50:29;;;;;;;0.40;0.40;;;17.20;59.10;;;;;;5099211;28;20416;-92
2022/05/30 11:53:36;;;;;;;0.30;0.30;;;17.10;59.10;;;;;;5098369;28;20440;-91
2022/05/30 11:56:09;;;;;;;0.50;0.50;;;17.20;56.00;;;;;;5099150;28;20423;-91
2022/05/30 11:59:03;;;;;;;0.40;0.30;;;17.20;58.00;;;;;;5099145;28;20432;-90
2022/05/30 12:01:32;;;;;;;2.77;0.77;;;17.10;57.20;;;;;;5097656;28;20409;-91
2022/05/30 12:04:26;;;;;;;0.50;0.40;;;17.10;57.70;;;;;;5098290;28;20474;-90
2022/05/30 12:07:29;;;;;;;0.40;0.30;;;17.20;58.10;;;;;;5079606;28;20576;-90
2022/05/30 12:10:11;;;;;;;0.60;0.40;;;17.40;59.00;;;;;;5098457;28;20454;-91
2022/05/30 12:12:57;;;;;;;0.50;0.47;;;17.80;59.20;;;;;;5098881;28;20467;-90
2022/05/30 12:15:56;;;;;;;0.40;0.30;;;18.30;57.90;;;;;;5098500;28;20483;-91
2022/05/30 12:24:40;;;;;;;0.30;0.30;;;18.80;57.00;;;;;;5096345;28;20404;-81
2022/05/30 12:27:14;;;;;;;1.20;0.47;;;19.00;57.10;;;;;;5096314;28;20468;-84
2022/05/30 12:29:51;;;;;;;0.60;0.60;;;19.00;55.30;;;;;;5096512;28;20805;-87
2022/05/30 12:32:42;;;;;;;0.50;0.40;;;18.80;54.70;;;;;;5096372;28;20517;-86
2022/05/30 12:35:31;;;;;;;0.50;0.40;;;18.50;55.00;;;;;;5096368;28;20470;-85
2022/05/30 12:38:17;;;;;;;0.50;0.40;;;18.30;54.80;;;;;;5096258;28;20425;-85
2022/05/30 12:41:18;;;;;;;0.40;0.40;;;17.90;55.10;;;;;;5096046;28;20479;-85
2022/05/30 12:43:45;;;;;;;0.50;0.50;;;17.70;56.80;;;;;;5096638;28;20475;-85
2022/05/30 12:46:19;;;;;;;0.40;0.33;;;17.50;57.20;;;;;;5096101;28;20467;-86
2022/05/30 12:49:05;;;;;;;0.40;0.40;;;17.60;57.30;;;;;;5097015;28;20428;-85
2022/05/30 12:51:41;;;;;;;0.50;0.50;;;17.60;57.50;;;;;;5095788;28;20895;-86
2022/05/30 12:54:36;;;;;;;0.80;0.40;;;17.60;56.40;;;;;;5095788;28;20443;-85
2022/05/30 12:57:35;;;;;;;0.40;0.40;;;17.60;55.90;;;;;;5095562;28;20436;-85
2022/05/30 13:00:14;;;;;;;0.60;0.43;;;17.40;55.90;;;;;;5095581;28;20447;-86
2022/05/30 13:03:03;;;;;;;0.50;0.50;;;17.20;56.50;;;;;;5094749;28;20561;-85
2022/05/30 13:05:48;;;;;;;0.50;0.43;;;17.20;57.20;;;;;;5095595;28;20444;-85
2022/05/30 13:09:03;;;;;;;0.40;0.30;;;17.10;57.80;;;;;;5095334;28;20495;-86
2022/05/30 13:11:56;;;;;;;0.33;0.33;;;17.30;58.00;;;;;;5095503;28;20443;-85
2022/05/30 13:14:33;;;;;;;0.80;0.50;;;17.40;56.80;;;;;;5095427;28;20440;-85
2022/05/30 13:17:05;;;;;;;0.40;0.30;;;17.50;56.60;;;;;;5095400;28;20435;-85
2022/05/30 13:19:32;;;;;;;0.40;0.40;;;17.50;55.00;;;;;;5095301;28;20447;-85
2022/05/30 13:22:01;;;;;;;1.07;0.50;;;17.50;55.00;;;;;;5094840;28;20460;-85
2022/05/30 13:24:30;;;;;;;0.40;0.40;;;17.40;54.90;;;;;;5095261;28;20822;-85
2022/05/30 13:26:59;;;;;;;0.50;0.40;;;17.40;55.00;;;;;;5095044;28;20490;-85
2022/05/30 13:29:34;;;;;;;3.07;0.70;;;17.30;54.70;;;;;;5095004;28;20455;-85
2022/05/30 13:32:01;;;;;;;0.50;0.40;;;17.30;55.70;;;;;;5094999;28;20827;-85
2022/05/30 13:34:31;;;;;;;0.43;0.40;;;17.30;55.80;;;;;;5095063;28;20437;-86